sensor_id;sensor_type;location;lat;lon;timestamp;P1;durP1;ratioP1;P2;durP2;ratioP2
24261;SDS011;12385;51.412;5.540;2022-07-21T00:00:18;9.52;;;8.57;;
24261;SDS011;12385;51.412;5.540;2022-07-21T00:02:44;11.07;;;8.95;;
24261;SDS011;12385;51.412;5.540;2022-07-21T00:05:10;10.85;;;8.63;;
24261;SDS011;12385;51.412;5.540;2022-07-21T00:07:36;12.75;;;9.10;;
24261;SDS011;12385;51.412;5.540;2022-07-21T00:10:02;12.10;;;9.77;;
24261;SDS011;12385;51.412;5.540;2022-07-21T00:12:28;10.57;;;9.35;;
24261;SDS011;12385;51.412;5.540;2022-07-21T00:14:53;12.15;;;9.40;;
24261;SDS011;12385;51.412;5.540;2022-07-21T00:17:19;11.40;;;9.45;;
24261;SDS011;12385;51.412;5.540;2022-07-21T00:19:45;12.90;;;9.73;;
24261;SDS011;12385;51.412;5.540;2022-07-21T00:22:10;11.93;;;9.32;;
24261;SDS011;12385;51.412;5.540;2022-07-21T00:24:36;12.77;;;9.27;;
24261;SDS011;12385;51.412;5.540;2022-07-21T00:27:01;11.25;;;9.95;;
24261;SDS011;12385;51.412;5.540;2022-07-21T00:29:27;14.23;;;9.88;;
24261;SDS011;12385;51.412;5.540;2022-07-21T00:31:53;12.88;;;9.98;;
24261;SDS011;12385;51.412;5.540;2022-07-21T00:34:18;11.77;;;10.05;;
24261;SDS011;12385;51.412;5.540;2022-07-21T00:36:44;13.13;;;9.68;;
24261;SDS011;12385;51.412;5.540;2022-07-21T00:39:09;12.57;;;10.25;;
24261;SDS011;12385;51.412;5.540;2022-07-21T00:41:36;13.15;;;10.07;;
24261;SDS011;12385;51.412;5.540;2022-07-21T00:44:02;11.63;;;10.13;;
24261;SDS011;12385;51.412;5.540;2022-07-21T00:46:28;13.23;;;10.95;;
24261;SDS011;12385;51.412;5.540;2022-07-21T00:48:53;12.73;;;11.05;;
24261;SDS011;12385;51.412;5.540;2022-07-21T00:51:19;15.90;;;11.57;;
24261;SDS011;12385;51.412;5.540;2022-07-21T00:53:45;13.48;;;10.60;;
24261;SDS011;12385;51.412;5.540;2022-07-21T00:56:11;12.52;;;10.98;;
24261;SDS011;12385;51.412;5.540;2022-07-21T00:58:37;12.77;;;10.55;;
24261;SDS011;12385;51.412;5.540;2022-07-21T01:01:04;14.00;;;11.35;;
24261;SDS011;12385;51.412;5.540;2022-07-21T01:03:30;14.70;;;11.68;;
24261;SDS011;12385;51.412;5.540;2022-07-21T01:05:56;15.07;;;11.02;;
24261;SDS011;12385;51.412;5.540;2022-07-21T01:08:23;12.63;;;11.32;;
24261;SDS011;12385;51.412;5.540;2022-07-21T01:10:48;13.25;;;11.10;;
24261;SDS011;12385;51.412;5.540;2022-07-21T01:13:14;15.20;;;11.23;;
24261;SDS011;12385;51.412;5.540;2022-07-21T01:15:40;14.40;;;11.60;;
24261;SDS011;12385;51.412;5.540;2022-07-21T01:18:05;14.10;;;12.20;;
24261;SDS011;12385;51.412;5.540;2022-07-21T01:20:33;13.60;;;11.32;;
24261;SDS011;12385;51.412;5.540;2022-07-21T01:23:01;15.52;;;11.15;;
24261;SDS011;12385;51.412;5.540;2022-07-21T01:25:27;16.23;;;12.48;;
24261;SDS011;12385;51.412;5.540;2022-07-21T01:27:53;14.93;;;12.13;;
24261;SDS011;12385;51.412;5.540;2022-07-21T01:30:19;17.08;;;12.55;;
24261;SDS011;12385;51.412;5.540;2022-07-21T01:32:44;18.95;;;13.07;;
24261;SDS011;12385;51.412;5.540;2022-07-21T01:35:11;17.20;;;12.82;;
24261;SDS011;12385;51.412;5.540;2022-07-21T01:37:40;17.08;;;12.52;;
24261;SDS011;12385;51.412;5.540;2022-07-21T01:40:07;16.90;;;13.47;;
24261;SDS011;12385;51.412;5.540;2022-07-21T01:42:53;15.68;;;12.30;;
24261;SDS011;12385;51.412;5.540;2022-07-21T01:45:19;14.70;;;12.27;;
24261;SDS011;12385;51.412;5.540;2022-07-21T01:47:45;16.10;;;12.85;;
24261;SDS011;12385;51.412;5.540;2022-07-21T01:50:11;18.88;;;13.18;;
24261;SDS011;12385;51.412;5.540;2022-07-21T01:52:37;15.20;;;12.35;;
24261;SDS011;12385;51.412;5.540;2022-07-21T01:55:03;14.77;;;12.70;;
24261;SDS011;12385;51.412;5.540;2022-07-21T01:57:29;14.80;;;12.93;;
24261;SDS011;12385;51.412;5.540;2022-07-21T01:59:55;14.60;;;12.57;;
24261;SDS011;12385;51.412;5.540;2022-07-21T02:02:21;17.67;;;13.32;;
24261;SDS011;12385;51.412;5.540;2022-07-21T02:04:47;16.33;;;12.60;;
24261;SDS011;12385;51.412;5.540;2022-07-21T02:07:13;15.73;;;13.27;;
24261;SDS011;12385;51.412;5.540;2022-07-21T02:09:39;16.20;;;13.20;;
24261;SDS011;12385;51.412;5.540;2022-07-21T02:12:05;16.65;;;13.20;;
24261;SDS011;12385;51.412;5.540;2022-07-21T02:14:31;17.27;;;12.82;;
24261;SDS011;12385;51.412;5.540;2022-07-21T02:16:56;17.17;;;13.70;;
24261;SDS011;12385;51.412;5.540;2022-07-21T02:19:22;16.13;;;12.88;;
24261;SDS011;12385;51.412;5.540;2022-07-21T02:21:48;18.92;;;13.65;;
24261;SDS011;12385;51.412;5.540;2022-07-21T02:24:13;16.88;;;13.57;;
24261;SDS011;12385;51.412;5.540;2022-07-21T02:26:39;17.58;;;14.40;;
24261;SDS011;12385;51.412;5.540;2022-07-21T02:29:04;16.23;;;13.63;;
24261;SDS011;12385;51.412;5.540;2022-07-21T02:31:30;16.88;;;14.20;;
24261;SDS011;12385;51.412;5.540;2022-07-21T02:33:56;17.70;;;14.93;;
24261;SDS011;12385;51.412;5.540;2022-07-21T02:36:21;18.20;;;13.80;;
24261;SDS011;12385;51.412;5.540;2022-07-21T02:38:47;19.83;;;15.20;;
24261;SDS011;12385;51.412;5.540;2022-07-21T02:41:12;17.55;;;15.20;;
24261;SDS011;12385;51.412;5.540;2022-07-21T02:43:38;16.38;;;14.65;;
24261;SDS011;12385;51.412;5.540;2022-07-21T02:46:03;20.10;;;14.60;;
24261;SDS011;12385;51.412;5.540;2022-07-21T02:48:29;18.23;;;14.57;;
24261;SDS011;12385;51.412;5.540;2022-07-21T02:50:55;19.50;;;15.30;;
24261;SDS011;12385;51.412;5.540;2022-07-21T02:53:20;22.27;;;15.93;;
24261;SDS011;12385;51.412;5.540;2022-07-21T02:55:47;21.52;;;15.77;;
24261;SDS011;12385;51.412;5.540;2022-07-21T02:58:18;20.38;;;15.95;;
24261;SDS011;12385;51.412;5.540;2022-07-21T03:00:52;18.92;;;16.08;;
24261;SDS011;12385;51.412;5.540;2022-07-21T03:03:18;22.33;;;16.67;;
24261;SDS011;12385;51.412;5.540;2022-07-21T03:05:45;19.45;;;16.27;;
24261;SDS011;12385;51.412;5.540;2022-07-21T03:08:11;24.30;;;16.38;;
24261;SDS011;12385;51.412;5.540;2022-07-21T03:10:37;22.23;;;16.05;;
24261;SDS011;12385;51.412;5.540;2022-07-21T03:13:04;20.25;;;15.88;;
24261;SDS011;12385;51.412;5.540;2022-07-21T03:15:30;21.02;;;16.33;;
24261;SDS011;12385;51.412;5.540;2022-07-21T03:17:56;19.98;;;16.00;;
24261;SDS011;12385;51.412;5.540;2022-07-21T03:20:22;22.67;;;16.38;;
24261;SDS011;12385;51.412;5.540;2022-07-21T03:22:48;24.33;;;15.98;;
24261;SDS011;12385;51.412;5.540;2022-07-21T03:25:14;19.85;;;15.43;;
24261;SDS011;12385;51.412;5.540;2022-07-21T03:27:40;20.10;;;15.95;;
24261;SDS011;12385;51.412;5.540;2022-07-21T03:30:06;21.65;;;15.30;;
24261;SDS011;12385;51.412;5.540;2022-07-21T03:32:33;21.17;;;15.30;;
24261;SDS011;12385;51.412;5.540;2022-07-21T03:34:59;18.15;;;15.23;;
24261;SDS011;12385;51.412;5.540;2022-07-21T03:37:26;18.15;;;15.07;;
24261;SDS011;12385;51.412;5.540;2022-07-21T03:39:52;18.52;;;14.70;;
24261;SDS011;12385;51.412;5.540;2022-07-21T03:42:18;18.23;;;14.88;;
24261;SDS011;12385;51.412;5.540;2022-07-21T03:44:43;18.88;;;15.05;;
24261;SDS011;12385;51.412;5.540;2022-07-21T03:47:09;19.02;;;14.77;;
24261;SDS011;12385;51.412;5.540;2022-07-21T03:49:35;22.13;;;15.60;;
24261;SDS011;12385;51.412;5.540;2022-07-21T03:52:00;21.52;;;15.85;;
24261;SDS011;12385;51.412;5.540;2022-07-21T03:54:26;19.63;;;14.68;;
24261;SDS011;12385;51.412;5.540;2022-07-21T03:56:51;18.13;;;15.10;;
24261;SDS011;12385;51.412;5.540;2022-07-21T03:59:17;21.88;;;15.70;;
24261;SDS011;12385;51.412;5.540;2022-07-21T04:01:43;19.83;;;15.90;;
24261;SDS011;12385;51.412;5.540;2022-07-21T04:04:08;18.23;;;15.38;;
24261;SDS011;12385;51.412;5.540;2022-07-21T04:06:34;17.30;;;14.02;;
24261;SDS011;12385;51.412;5.540;2022-07-21T04:08:59;20.70;;;16.45;;
24261;SDS011;12385;51.412;5.540;2022-07-21T04:11:25;22.35;;;14.93;;
24261;SDS011;12385;51.412;5.540;2022-07-21T04:13:51;18.75;;;15.32;;
24261;SDS011;12385;51.412;5.540;2022-07-21T04:16:16;23.27;;;14.70;;
24261;SDS011;12385;51.412;5.540;2022-07-21T04:18:42;19.70;;;14.90;;
24261;SDS011;12385;51.412;5.540;2022-07-21T04:21:08;19.05;;;14.35;;
24261;SDS011;12385;51.412;5.540;2022-07-21T04:23:33;17.67;;;13.50;;
24261;SDS011;12385;51.412;5.540;2022-07-21T04:25:59;21.52;;;13.75;;
24261;SDS011;12385;51.412;5.540;2022-07-21T04:28:24;17.60;;;12.82;;
24261;SDS011;12385;51.412;5.540;2022-07-21T04:30:50;17.05;;;12.40;;
24261;SDS011;12385;51.412;5.540;2022-07-21T04:33:16;16.58;;;13.02;;
24261;SDS011;12385;51.412;5.540;2022-07-21T04:35:41;20.55;;;12.45;;
24261;SDS011;12385;51.412;5.540;2022-07-21T04:38:08;15.95;;;11.68;;
24261;SDS011;12385;51.412;5.540;2022-07-21T04:40:34;22.63;;;11.98;;
24261;SDS011;12385;51.412;5.540;2022-07-21T04:43:00;15.25;;;11.32;;
24261;SDS011;12385;51.412;5.540;2022-07-21T04:45:26;17.13;;;10.82;;
24261;SDS011;12385;51.412;5.540;2022-07-21T04:47:52;17.23;;;11.23;;
24261;SDS011;12385;51.412;5.540;2022-07-21T04:52:48;18.55;;;10.52;;
24261;SDS011;12385;51.412;5.540;2022-07-21T04:55:15;15.48;;;10.30;;
24261;SDS011;12385;51.412;5.540;2022-07-21T04:57:48;16.98;;;10.88;;
24261;SDS011;12385;51.412;5.540;2022-07-21T05:00:16;14.27;;;9.90;;
24261;SDS011;12385;51.412;5.540;2022-07-21T05:02:43;17.77;;;10.50;;
24261;SDS011;12385;51.412;5.540;2022-07-21T05:05:09;17.42;;;10.20;;
24261;SDS011;12385;51.412;5.540;2022-07-21T05:07:35;15.00;;;9.82;;
24261;SDS011;12385;51.412;5.540;2022-07-21T05:10:09;16.50;;;10.23;;
24261;SDS011;12385;51.412;5.540;2022-07-21T05:12:36;15.88;;;10.50;;
24261;SDS011;12385;51.412;5.540;2022-07-21T05:15:03;16.10;;;10.18;;
24261;SDS011;12385;51.412;5.540;2022-07-21T05:17:32;15.70;;;9.68;;
24261;SDS011;12385;51.412;5.540;2022-07-21T05:19:59;15.10;;;9.77;;
24261;SDS011;12385;51.412;5.540;2022-07-21T05:22:25;15.45;;;9.80;;
24261;SDS011;12385;51.412;5.540;2022-07-21T05:24:51;15.60;;;10.50;;
24261;SDS011;12385;51.412;5.540;2022-07-21T05:27:17;14.85;;;9.73;;
24261;SDS011;12385;51.412;5.540;2022-07-21T05:29:42;15.52;;;9.35;;
24261;SDS011;12385;51.412;5.540;2022-07-21T05:32:08;15.65;;;9.52;;
24261;SDS011;12385;51.412;5.540;2022-07-21T05:34:33;15.00;;;10.23;;
24261;SDS011;12385;51.412;5.540;2022-07-21T05:36:59;12.13;;;9.60;;
24261;SDS011;12385;51.412;5.540;2022-07-21T05:39:25;14.23;;;9.18;;
24261;SDS011;12385;51.412;5.540;2022-07-21T05:41:50;15.65;;;9.63;;
24261;SDS011;12385;51.412;5.540;2022-07-21T05:44:16;18.73;;;10.23;;
24261;SDS011;12385;51.412;5.540;2022-07-21T05:46:42;16.33;;;9.25;;
24261;SDS011;12385;51.412;5.540;2022-07-21T05:49:07;16.35;;;10.18;;
24261;SDS011;12385;51.412;5.540;2022-07-21T05:51:33;14.88;;;10.70;;
24261;SDS011;12385;51.412;5.540;2022-07-21T05:54:00;16.80;;;9.98;;
24261;SDS011;12385;51.412;5.540;2022-07-21T05:56:25;19.48;;;10.55;;
24261;SDS011;12385;51.412;5.540;2022-07-21T05:58:51;16.08;;;10.25;;
24261;SDS011;12385;51.412;5.540;2022-07-21T06:01:16;21.42;;;11.45;;
24261;SDS011;12385;51.412;5.540;2022-07-21T06:06:11;16.98;;;10.55;;
24261;SDS011;12385;51.412;5.540;2022-07-21T06:08:38;19.60;;;10.60;;
24261;SDS011;12385;51.412;5.540;2022-07-21T06:11:05;16.58;;;10.57;;
24261;SDS011;12385;51.412;5.540;2022-07-21T06:13:33;18.00;;;11.18;;
24261;SDS011;12385;51.412;5.540;2022-07-21T06:15:59;19.70;;;11.00;;
24261;SDS011;12385;51.412;5.540;2022-07-21T06:18:24;17.67;;;11.05;;
24261;SDS011;12385;51.412;5.540;2022-07-21T06:20:50;16.98;;;11.18;;
24261;SDS011;12385;51.412;5.540;2022-07-21T06:23:16;18.80;;;11.48;;
24261;SDS011;12385;51.412;5.540;2022-07-21T06:25:42;21.13;;;11.63;;
24261;SDS011;12385;51.412;5.540;2022-07-21T06:28:08;21.00;;;12.32;;
24261;SDS011;12385;51.412;5.540;2022-07-21T06:30:33;20.00;;;12.00;;
24261;SDS011;12385;51.412;5.540;2022-07-21T06:32:59;20.98;;;11.98;;
24261;SDS011;12385;51.412;5.540;2022-07-21T06:35:24;20.02;;;11.73;;
24261;SDS011;12385;51.412;5.540;2022-07-21T06:37:50;23.70;;;11.88;;
24261;SDS011;12385;51.412;5.540;2022-07-21T06:40:16;21.00;;;12.48;;
24261;SDS011;12385;51.412;5.540;2022-07-21T06:42:42;22.85;;;12.40;;
24261;SDS011;12385;51.412;5.540;2022-07-21T06:45:08;18.38;;;12.20;;
24261;SDS011;12385;51.412;5.540;2022-07-21T06:47:34;22.98;;;13.48;;
24261;SDS011;12385;51.412;5.540;2022-07-21T06:49:59;20.83;;;13.88;;
24261;SDS011;12385;51.412;5.540;2022-07-21T06:52:28;20.80;;;12.98;;
24261;SDS011;12385;51.412;5.540;2022-07-21T06:54:54;26.35;;;14.15;;
24261;SDS011;12385;51.412;5.540;2022-07-21T06:57:21;25.00;;;14.02;;
24261;SDS011;12385;51.412;5.540;2022-07-21T06:59:47;20.63;;;13.75;;
24261;SDS011;12385;51.412;5.540;2022-07-21T07:02:12;20.35;;;12.57;;
24261;SDS011;12385;51.412;5.540;2022-07-21T07:04:38;26.52;;;13.70;;
24261;SDS011;12385;51.412;5.540;2022-07-21T07:07:04;24.80;;;14.30;;
24261;SDS011;12385;51.412;5.540;2022-07-21T07:09:29;22.50;;;13.50;;
24261;SDS011;12385;51.412;5.540;2022-07-21T07:11:55;21.73;;;14.25;;
24261;SDS011;12385;51.412;5.540;2022-07-21T07:14:28;23.73;;;13.82;;
24261;SDS011;12385;51.412;5.540;2022-07-21T07:16:58;23.85;;;14.15;;
24261;SDS011;12385;51.412;5.540;2022-07-21T07:19:24;21.73;;;14.43;;
24261;SDS011;12385;51.412;5.540;2022-07-21T07:21:50;26.42;;;14.88;;
24261;SDS011;12385;51.412;5.540;2022-07-21T07:24:16;21.45;;;13.75;;
24261;SDS011;12385;51.412;5.540;2022-07-21T07:26:41;22.27;;;14.32;;
24261;SDS011;12385;51.412;5.540;2022-07-21T07:29:07;22.77;;;14.18;;
24261;SDS011;12385;51.412;5.540;2022-07-21T07:31:33;22.08;;;13.75;;
24261;SDS011;12385;51.412;5.540;2022-07-21T07:33:59;20.83;;;14.80;;
24261;SDS011;12385;51.412;5.540;2022-07-21T07:36:25;20.30;;;14.23;;
24261;SDS011;12385;51.412;5.540;2022-07-21T07:38:52;27.73;;;15.45;;
24261;SDS011;12385;51.412;5.540;2022-07-21T07:41:19;21.00;;;14.00;;
24261;SDS011;12385;51.412;5.540;2022-07-21T07:43:46;23.38;;;14.23;;
24261;SDS011;12385;51.412;5.540;2022-07-21T07:46:12;24.63;;;14.75;;
24261;SDS011;12385;51.412;5.540;2022-07-21T07:48:38;28.60;;;16.27;;
24261;SDS011;12385;51.412;5.540;2022-07-21T07:51:06;23.92;;;15.80;;
24261;SDS011;12385;51.412;5.540;2022-07-21T07:53:33;24.00;;;16.42;;
24261;SDS011;12385;51.412;5.540;2022-07-21T07:55:59;31.08;;;17.63;;
24261;SDS011;12385;51.412;5.540;2022-07-21T07:58:25;30.55;;;18.45;;
24261;SDS011;12385;51.412;5.540;2022-07-21T08:00:51;31.88;;;19.70;;
24261;SDS011;12385;51.412;5.540;2022-07-21T08:03:16;30.98;;;20.35;;
24261;SDS011;12385;51.412;5.540;2022-07-21T08:05:42;30.38;;;19.15;;
24261;SDS011;12385;51.412;5.540;2022-07-21T08:08:08;32.38;;;19.52;;
24261;SDS011;12385;51.412;5.540;2022-07-21T08:10:33;39.53;;;22.55;;
24261;SDS011;12385;51.412;5.540;2022-07-21T08:12:59;36.83;;;20.92;;
24261;SDS011;12385;51.412;5.540;2022-07-21T08:15:25;32.00;;;20.27;;
24261;SDS011;12385;51.412;5.540;2022-07-21T08:17:51;29.38;;;19.58;;
24261;SDS011;12385;51.412;5.540;2022-07-21T08:20:16;25.23;;;19.08;;
24261;SDS011;12385;51.412;5.540;2022-07-21T08:22:42;37.15;;;21.35;;
24261;SDS011;12385;51.412;5.540;2022-07-21T08:25:08;27.15;;;19.05;;
24261;SDS011;12385;51.412;5.540;2022-07-21T08:27:34;28.35;;;19.10;;
24261;SDS011;12385;51.412;5.540;2022-07-21T08:30:00;28.50;;;18.92;;
24261;SDS011;12385;51.412;5.540;2022-07-21T08:32:26;44.50;;;24.42;;
24261;SDS011;12385;51.412;5.540;2022-07-21T08:34:53;40.90;;;23.60;;
24261;SDS011;12385;51.412;5.540;2022-07-21T08:37:19;40.90;;;21.13;;
24261;SDS011;12385;51.412;5.540;2022-07-21T08:39:45;53.03;;;20.85;;
24261;SDS011;12385;51.412;5.540;2022-07-21T08:42:14;44.85;;;21.33;;
24261;SDS011;12385;51.412;5.540;2022-07-21T08:44:40;33.60;;;18.00;;
24261;SDS011;12385;51.412;5.540;2022-07-21T08:47:15;26.58;;;17.35;;
24261;SDS011;12385;51.412;5.540;2022-07-21T08:49:40;20.90;;;14.15;;
24261;SDS011;12385;51.412;5.540;2022-07-21T08:52:07;17.98;;;12.25;;
24261;SDS011;12385;51.412;5.540;2022-07-21T08:54:32;18.52;;;13.55;;
24261;SDS011;12385;51.412;5.540;2022-07-21T08:56:58;24.85;;;16.38;;
24261;SDS011;12385;51.412;5.540;2022-07-21T08:59:24;22.70;;;16.08;;
24261;SDS011;12385;51.412;5.540;2022-07-21T09:01:51;35.50;;;19.80;;
24261;SDS011;12385;51.412;5.540;2022-07-21T09:06:50;25.15;;;18.00;;
24261;SDS011;12385;51.412;5.540;2022-07-21T09:09:21;24.10;;;18.13;;
24261;SDS011;12385;51.412;5.540;2022-07-21T09:11:47;32.83;;;20.25;;
24261;SDS011;12385;51.412;5.540;2022-07-21T09:14:16;32.92;;;20.73;;
24261;SDS011;12385;51.412;5.540;2022-07-21T09:19:24;34.03;;;23.30;;
24261;SDS011;12385;51.412;5.540;2022-07-21T09:22:17;35.33;;;22.58;;
24261;SDS011;12385;51.412;5.540;2022-07-21T09:24:50;31.83;;;20.83;;
24261;SDS011;12385;51.412;5.540;2022-07-21T09:27:17;33.38;;;21.63;;
24261;SDS011;12385;51.412;5.540;2022-07-21T09:29:47;29.27;;;20.17;;
24261;SDS011;12385;51.412;5.540;2022-07-21T09:32:19;33.73;;;20.23;;
24261;SDS011;12385;51.412;5.540;2022-07-21T09:34:46;25.20;;;17.23;;
24261;SDS011;12385;51.412;5.540;2022-07-21T09:37:13;28.42;;;18.20;;
24261;SDS011;12385;51.412;5.540;2022-07-21T09:39:40;24.90;;;16.70;;
24261;SDS011;12385;51.412;5.540;2022-07-21T09:42:14;17.90;;;14.10;;
24261;SDS011;12385;51.412;5.540;2022-07-21T09:44:47;15.82;;;12.20;;
24261;SDS011;12385;51.412;5.540;2022-07-21T09:47:17;20.45;;;14.73;;
24261;SDS011;12385;51.412;5.540;2022-07-21T09:49:44;13.32;;;10.57;;
24261;SDS011;12385;51.412;5.540;2022-07-21T09:52:20;16.85;;;12.63;;
24261;SDS011;12385;51.412;5.540;2022-07-21T09:54:55;14.80;;;12.43;;
24261;SDS011;12385;51.412;5.540;2022-07-21T09:57:23;13.80;;;11.97;;
24261;SDS011;12385;51.412;5.540;2022-07-21T09:59:49;9.65;;;8.30;;
24261;SDS011;12385;51.412;5.540;2022-07-21T10:02:16;8.73;;;7.68;;
24261;SDS011;12385;51.412;5.540;2022-07-21T10:05:00;12.63;;;9.35;;
24261;SDS011;12385;51.412;5.540;2022-07-21T10:07:29;12.88;;;8.60;;
24261;SDS011;12385;51.412;5.540;2022-07-21T10:09:56;16.92;;;10.07;;
24261;SDS011;12385;51.412;5.540;2022-07-21T10:12:23;15.25;;;11.40;;
24261;SDS011;12385;51.412;5.540;2022-07-21T10:14:49;13.23;;;9.80;;
24261;SDS011;12385;51.412;5.540;2022-07-21T10:17:16;13.85;;;10.18;;
24261;SDS011;12385;51.412;5.540;2022-07-21T10:25:21;7.57;;;6.60;;
24261;SDS011;12385;51.412;5.540;2022-07-21T10:30:40;6.78;;;6.05;;
24261;SDS011;12385;51.412;5.540;2022-07-21T10:33:08;6.88;;;6.18;;
24261;SDS011;12385;51.412;5.540;2022-07-21T10:35:34;7.88;;;6.65;;
24261;SDS011;12385;51.412;5.540;2022-07-21T10:38:03;12.10;;;8.57;;
24261;SDS011;12385;51.412;5.540;2022-07-21T10:40:34;9.60;;;8.25;;
24261;SDS011;12385;51.412;5.540;2022-07-21T10:45:35;11.65;;;8.63;;
24261;SDS011;12385;51.412;5.540;2022-07-21T10:50:36;10.35;;;8.77;;
24261;SDS011;12385;51.412;5.540;2022-07-21T10:53:04;14.05;;;11.70;;
24261;SDS011;12385;51.412;5.540;2022-07-21T10:55:37;14.25;;;10.20;;
24261;SDS011;12385;51.412;5.540;2022-07-21T11:03:40;16.05;;;11.25;;
24261;SDS011;12385;51.412;5.540;2022-07-21T11:06:20;15.82;;;10.70;;
24261;SDS011;12385;51.412;5.540;2022-07-21T11:14:00;19.58;;;13.43;;
24261;SDS011;12385;51.412;5.540;2022-07-21T11:27:20;17.48;;;12.55;;
24261;SDS011;12385;51.412;5.540;2022-07-21T11:29:48;16.35;;;11.15;;
24261;SDS011;12385;51.412;5.540;2022-07-21T11:32:15;13.27;;;11.35;;
24261;SDS011;12385;51.412;5.540;2022-07-21T11:34:49;18.38;;;13.52;;
24261;SDS011;12385;51.412;5.540;2022-07-21T11:37:18;24.83;;;15.45;;
24261;SDS011;12385;51.412;5.540;2022-07-21T11:39:58;17.63;;;13.23;;
24261;SDS011;12385;51.412;5.540;2022-07-21T11:42:26;23.08;;;15.30;;
24261;SDS011;12385;51.412;5.540;2022-07-21T11:44:52;18.52;;;14.10;;
24261;SDS011;12385;51.412;5.540;2022-07-21T11:47:19;22.50;;;13.55;;
24261;SDS011;12385;51.412;5.540;2022-07-21T11:49:54;21.23;;;14.30;;
24261;SDS011;12385;51.412;5.540;2022-07-21T11:52:31;17.70;;;12.43;;
24261;SDS011;12385;51.412;5.540;2022-07-21T11:54:59;20.50;;;14.82;;
24261;SDS011;12385;51.412;5.540;2022-07-21T11:57:26;12.55;;;10.27;;
24261;SDS011;12385;51.412;5.540;2022-07-21T11:59:53;13.52;;;9.52;;
24261;SDS011;12385;51.412;5.540;2022-07-21T12:02:21;15.98;;;11.02;;
24261;SDS011;12385;51.412;5.540;2022-07-21T12:04:49;15.10;;;10.00;;
24261;SDS011;12385;51.412;5.540;2022-07-21T12:07:18;16.50;;;10.75;;
24261;SDS011;12385;51.412;5.540;2022-07-21T12:09:45;15.15;;;10.60;;
24261;SDS011;12385;51.412;5.540;2022-07-21T12:12:14;17.35;;;12.20;;
24261;SDS011;12385;51.412;5.540;2022-07-21T12:14:47;15.13;;;11.60;;
24261;SDS011;12385;51.412;5.540;2022-07-21T12:22:53;12.63;;;10.30;;
24261;SDS011;12385;51.412;5.540;2022-07-21T12:25:39;14.10;;;10.93;;
24261;SDS011;12385;51.412;5.540;2022-07-21T12:28:06;15.35;;;11.00;;
24261;SDS011;12385;51.412;5.540;2022-07-21T12:35:32;16.33;;;10.73;;
24261;SDS011;12385;51.412;5.540;2022-07-21T12:38:00;15.00;;;10.15;;
24261;SDS011;12385;51.412;5.540;2022-07-21T12:40:28;14.70;;;10.52;;
24261;SDS011;12385;51.412;5.540;2022-07-21T12:43:09;13.05;;;9.50;;
24261;SDS011;12385;51.412;5.540;2022-07-21T12:45:47;15.27;;;8.65;;
24261;SDS011;12385;51.412;5.540;2022-07-21T12:48:16;12.60;;;8.35;;
24261;SDS011;12385;51.412;5.540;2022-07-21T12:50:56;11.35;;;8.73;;
24261;SDS011;12385;51.412;5.540;2022-07-21T12:53:30;13.18;;;9.70;;
24261;SDS011;12385;51.412;5.540;2022-07-21T12:55:57;16.40;;;10.88;;
24261;SDS011;12385;51.412;5.540;2022-07-21T12:58:23;14.55;;;10.18;;
24261;SDS011;12385;51.412;5.540;2022-07-21T13:00:49;14.30;;;9.40;;
24261;SDS011;12385;51.412;5.540;2022-07-21T13:03:14;15.82;;;9.88;;
24261;SDS011;12385;51.412;5.540;2022-07-21T13:05:40;18.50;;;11.45;;
24261;SDS011;12385;51.412;5.540;2022-07-21T13:08:06;13.45;;;11.23;;
24261;SDS011;12385;51.412;5.540;2022-07-21T13:10:32;15.88;;;11.23;;
24261;SDS011;12385;51.412;5.540;2022-07-21T13:12:58;17.73;;;11.70;;
24261;SDS011;12385;51.412;5.540;2022-07-21T13:15:23;15.00;;;10.73;;
24261;SDS011;12385;51.412;5.540;2022-07-21T13:17:49;14.95;;;10.43;;
24261;SDS011;12385;51.412;5.540;2022-07-21T13:20:15;12.63;;;9.10;;
24261;SDS011;12385;51.412;5.540;2022-07-21T13:22:41;16.27;;;10.85;;
24261;SDS011;12385;51.412;5.540;2022-07-21T13:25:07;11.48;;;9.38;;
24261;SDS011;12385;51.412;5.540;2022-07-21T13:27:34;13.63;;;8.85;;
24261;SDS011;12385;51.412;5.540;2022-07-21T13:30:00;10.63;;;5.45;;
24261;SDS011;12385;51.412;5.540;2022-07-21T13:32:27;11.80;;;6.47;;
24261;SDS011;12385;51.412;5.540;2022-07-21T13:34:53;12.27;;;5.45;;
24261;SDS011;12385;51.412;5.540;2022-07-21T13:37:19;11.07;;;6.45;;
24261;SDS011;12385;51.412;5.540;2022-07-21T13:39:44;8.38;;;5.40;;
24261;SDS011;12385;51.412;5.540;2022-07-21T13:42:10;11.18;;;5.60;;
24261;SDS011;12385;51.412;5.540;2022-07-21T13:44:36;10.60;;;5.20;;
24261;SDS011;12385;51.412;5.540;2022-07-21T13:47:02;9.25;;;5.90;;
24261;SDS011;12385;51.412;5.540;2022-07-21T13:49:28;9.82;;;5.60;;
24261;SDS011;12385;51.412;5.540;2022-07-21T13:51:54;9.38;;;5.00;;
24261;SDS011;12385;51.412;5.540;2022-07-21T13:54:19;8.20;;;5.50;;
24261;SDS011;12385;51.412;5.540;2022-07-21T13:56:45;7.22;;;4.85;;
24261;SDS011;12385;51.412;5.540;2022-07-21T13:59:11;10.10;;;5.00;;
24261;SDS011;12385;51.412;5.540;2022-07-21T14:01:37;11.65;;;5.30;;
24261;SDS011;12385;51.412;5.540;2022-07-21T14:04:02;7.70;;;4.95;;
24261;SDS011;12385;51.412;5.540;2022-07-21T14:06:28;6.82;;;4.53;;
24261;SDS011;12385;51.412;5.540;2022-07-21T14:08:55;8.15;;;4.22;;
24261;SDS011;12385;51.412;5.540;2022-07-21T14:11:21;6.68;;;4.32;;
24261;SDS011;12385;51.412;5.540;2022-07-21T14:13:49;12.88;;;5.28;;
24261;SDS011;12385;51.412;5.540;2022-07-21T14:16:15;9.85;;;5.75;;
24261;SDS011;12385;51.412;5.540;2022-07-21T14:18:41;9.60;;;5.93;;
24261;SDS011;12385;51.412;5.540;2022-07-21T14:21:07;9.50;;;5.07;;
24261;SDS011;12385;51.412;5.540;2022-07-21T14:23:34;8.10;;;5.22;;
24261;SDS011;12385;51.412;5.540;2022-07-21T14:25:59;11.68;;;5.85;;
24261;SDS011;12385;51.412;5.540;2022-07-21T14:28:25;8.85;;;5.65;;
24261;SDS011;12385;51.412;5.540;2022-07-21T14:30:51;10.75;;;5.60;;
24261;SDS011;12385;51.412;5.540;2022-07-21T14:33:17;8.93;;;5.28;;
24261;SDS011;12385;51.412;5.540;2022-07-21T14:35:43;11.85;;;5.40;;
24261;SDS011;12385;51.412;5.540;2022-07-21T14:38:08;11.38;;;5.30;;
24261;SDS011;12385;51.412;5.540;2022-07-21T14:40:34;12.32;;;5.28;;
24261;SDS011;12385;51.412;5.540;2022-07-21T14:43:02;9.15;;;4.80;;
24261;SDS011;12385;51.412;5.540;2022-07-21T14:45:28;8.98;;;4.85;;
24261;SDS011;12385;51.412;5.540;2022-07-21T14:47:54;11.13;;;5.05;;
24261;SDS011;12385;51.412;5.540;2022-07-21T14:50:21;11.95;;;5.95;;
24261;SDS011;12385;51.412;5.540;2022-07-21T14:52:48;10.00;;;6.00;;
24261;SDS011;12385;51.412;5.540;2022-07-21T14:55:14;11.85;;;6.15;;
24261;SDS011;12385;51.412;5.540;2022-07-21T14:57:39;13.13;;;6.00;;
24261;SDS011;12385;51.412;5.540;2022-07-21T15:00:07;12.48;;;5.68;;
24261;SDS011;12385;51.412;5.540;2022-07-21T15:02:34;10.70;;;5.50;;
24261;SDS011;12385;51.412;5.540;2022-07-21T15:05:00;15.48;;;5.85;;
24261;SDS011;12385;51.412;5.540;2022-07-21T15:07:26;10.18;;;4.43;;
24261;SDS011;12385;51.412;5.540;2022-07-21T15:09:51;9.98;;;4.88;;
24261;SDS011;12385;51.412;5.540;2022-07-21T15:12:17;12.27;;;4.35;;
24261;SDS011;12385;51.412;5.540;2022-07-21T15:14:43;12.20;;;4.20;;
24261;SDS011;12385;51.412;5.540;2022-07-21T15:17:08;10.55;;;4.70;;
24261;SDS011;12385;51.412;5.540;2022-07-21T15:19:34;10.68;;;4.70;;